Purdy Station, New York
Current Conditions -  °F | °C
As of 1:53 PM on Thursday 23 Oct 2014 (Local Time) from KDXR Reporting Station
Overcast Overcast  
Wind Chill: 43°   Ceiling: 1600
Heat Index: 48°   Visibility: 10mi
Dew Point: 42°   Wind: 10mph
Humidity: 80%   Direction: 340°NNW
Pressure: 29.71"   Gusts: NA
Location:  41.3178°N, 73.6377°W
Report Text: KDXR 231753Z 34009KT 10SM OVC016 09/06 A2971 RMK AO2 RAB00E13B40E53 SLP060 P0000 60002 T00890056 10094 20089 58002
Loading
Personal Weather Stations






























Interactive Weather Map
Tropical Storm Tracking
New forecast layout! Learn more

10-Day Weather Forecast

Advertisements
Track Severe Weather on mobile